Time;durP1;ratioP1;P1;durP2;ratioP2;P2;SDS_P1;SDS_P2;PMS_P1;PMS_P2;Temp;Humidity;BMP_temperature;BMP_pressure;BME280_temperature;BME280_humidity;BME280_pressure;Samples;Min_cycle;Max_cycle;Signal;HPM_P1;HPM_P2
2022/11/12 00:00:28;;;;;;;50.60;25.55;;;;;;;10.60;100.00;102882.69;4933503;29;20055;-75
2022/11/12 00:02:53;;;;;;;45.00;24.52;;;;;;;10.69;100.00;102870.34;4933779;29;20042;-75
2022/11/12 00:05:19;;;;;;;58.55;25.05;;;;;;;10.65;100.00;102876.97;4933356;29;20024;-75
2022/11/12 00:07:44;;;;;;;44.50;24.83;;;;;;;10.77;100.00;102872.53;4933408;29;20119;-74
2022/11/12 00:10:10;;;;;;;43.97;23.60;;;;;;;10.86;100.00;102882.69;4933592;29;20504;-75
2022/11/12 00:12:35;;;;;;;48.13;24.60;;;;;;;10.57;100.00;102872.09;4933506;29;20083;-75
2022/11/12 00:15:01;;;;;;;53.35;24.08;;;;;;;10.58;100.00;102878.38;4948855;29;20034;-74
2022/11/12 00:17:26;;;;;;;48.30;26.00;;;;;;;10.76;100.00;102881.63;4949729;29;20019;-74
2022/11/12 00:19:52;;;;;;;40.70;22.67;;;;;;;10.80;100.00;102889.41;4948979;29;20027;-74
2022/11/12 00:22:19;;;;;;;43.03;24.65;;;;;;;10.83;100.00;102888.34;4932989;29;20028;-74
2022/11/12 00:24:44;;;;;;;45.45;23.45;;;;;;;10.55;100.00;102879.44;4934176;29;20027;-75
2022/11/12 00:27:10;;;;;;;48.08;24.23;;;;;;;10.41;100.00;102893.09;4933585;29;20393;-74
2022/11/12 00:29:35;;;;;;;43.95;23.70;;;;;;;10.57;100.00;102885.66;4933664;29;20075;-74
2022/11/12 00:32:00;;;;;;;45.95;23.55;;;;;;;10.73;100.00;102882.69;4933136;29;20027;-75
2022/11/12 00:34:26;;;;;;;38.00;21.17;;;;;;;10.85;100.00;102875.53;4932606;29;20030;-75
2022/11/12 00:36:51;;;;;;;43.55;21.17;;;;;;;10.48;100.00;102878.16;4932426;29;20034;-75
2022/11/12 00:39:16;;;;;;;49.35;22.08;;;;;;;10.65;100.00;102874.25;4932990;29;20031;-75
2022/11/12 00:41:42;;;;;;;33.95;20.38;;;;;;;10.60;100.00;102874.56;4932631;29;20036;-75
2022/11/12 00:44:07;;;;;;;41.95;19.88;;;;;;;10.64;100.00;102877.09;4934026;29;20040;-75
2022/11/12 00:46:33;;;;;;;36.80;19.10;;;;;;;10.54;100.00;102883.13;4933151;29;20035;-75
2022/11/12 00:48:58;;;;;;;34.90;19.38;;;;;;;10.60;100.00;102874.56;4932948;29;20023;-75
2022/11/12 00:51:23;;;;;;;38.08;20.50;;;;;;;10.44;100.00;102871.25;4932854;29;20040;-75
2022/11/12 00:53:49;;;;;;;38.17;19.30;;;;;;;10.43;100.00;102864.09;4948530;29;20032;-74
2022/11/12 00:56:15;;;;;;;38.00;20.95;;;;;;;10.40;100.00;102858.88;4932348;29;20488;-74
2022/11/12 00:58:41;;;;;;;43.63;20.75;;;;;;;10.46;100.00;102865.72;4932566;29;20028;-75
2022/11/12 01:01:09;;;;;;;45.03;20.77;;;;;;;10.58;100.00;102859.41;4932506;29;20381;-74
2022/11/12 01:03:36;;;;;;;43.67;20.15;;;;;;;10.79;100.00;102865.13;4932534;29;20027;-75
2022/11/12 01:06:07;;;;;;;45.42;22.50;;;;;;;10.73;100.00;102871.00;4932455;29;20024;-75
2022/11/12 01:08:33;;;;;;;40.53;21.05;;;;;;;10.73;100.00;102865.56;4932819;29;20034;-75
2022/11/12 01:11:26;;;;;;;49.30;21.70;;;;;;;10.71;100.00;102872.97;4932474;29;20035;-73
2022/11/12 01:14:19;;;;;;;43.63;21.23;;;;;;;10.75;100.00;102874.44;4931597;29;20036;-74
2022/11/12 01:16:45;;;;;;;43.30;19.85;;;;;;;10.46;100.00;102868.41;4929276;29;20031;-74
2022/11/12 01:19:11;;;;;;;37.13;18.27;;;;;;;10.51;100.00;102867.13;4931490;29;20035;-74
2022/11/12 01:21:40;;;;;;;41.83;20.15;;;;;;;10.59;100.00;102853.88;4931628;29;20449;-74
2022/11/12 01:24:06;;;;;;;38.58;20.55;;;;;;;10.63;100.00;102859.06;4931850;29;20036;-74
2022/11/12 01:26:32;;;;;;;43.13;19.27;;;;;;;10.56;100.00;102870.38;4931537;29;20028;-74
2022/11/12 01:28:57;;;;;;;38.03;18.85;;;;;;;10.43;100.00;102863.19;4948285;29;20111;-74
2022/11/12 01:31:26;;;;;;;38.20;19.13;;;;;;;10.29;100.00;102861.47;4932742;29;20024;-74
2022/11/12 01:33:54;;;;;;;36.90;18.13;;;;;;;10.41;100.00;102866.03;4933538;29;20051;-74
2022/11/12 01:36:20;;;;;;;38.78;18.20;;;;;;;10.52;100.00;102867.97;4931411;29;20058;-74
2022/11/12 01:38:46;;;;;;;35.00;17.02;;;;;;;10.48;100.00;102867.31;4931657;29;20490;-74
2022/11/12 01:41:18;;;;;;;33.05;16.33;;;;;;;10.48;100.00;102867.31;4931871;29;20083;-74
2022/11/12 01:43:44;;;;;;;32.72;16.80;;;;;;;10.46;100.00;102869.28;4931634;29;20052;-74
2022/11/12 01:46:19;;;;;;;35.10;17.58;;;;;;;10.46;100.00;102880.13;4932184;29;20055;-74
2022/11/12 01:48:50;;;;;;;33.47;15.35;;;;;;;10.57;99.82;102872.09;4933201;29;20114;-74
2022/11/12 01:51:16;;;;;;;30.23;15.95;;;;;;;10.58;99.29;102863.00;4932867;29;20396;-74
2022/11/12 01:53:48;;;;;;;33.22;16.45;;;;;;;10.69;99.65;102880.31;4931965;29;20032;-74
2022/11/12 01:56:16;;;;;;;30.63;15.60;;;;;;;10.85;98.15;102880.94;4940212;28;20102;-74
2022/11/12 01:58:45;;;;;;;35.38;17.50;;;;;;;10.90;98.08;102877.91;4948875;28;20031;-74
2022/11/12 02:01:10;;;;;;;36.75;15.27;;;;;;;10.90;97.15;102878.78;4949684;29;20058;-74
2022/11/12 02:03:36;;;;;;;31.77;15.77;;;;;;;10.94;97.67;102885.69;4936284;29;20063;-74
2022/11/12 02:06:06;;;;;;;29.20;15.43;;;;;;;11.08;96.53;102877.44;4931314;29;20024;-74
2022/11/12 02:08:33;;;;;;;28.07;15.47;;;;;;;10.91;97.57;102880.50;4947049;29;20020;-74
2022/11/12 02:11:12;;;;;;;29.95;14.90;;;;;;;11.01;97.45;102881.56;4947155;29;20119;-74
2022/11/12 02:13:57;;;;;;;28.90;15.02;;;;;;;11.10;97.28;102880.91;4932628;29;20038;-74
2022/11/12 02:16:33;;;;;;;30.98;16.27;;;;;;;11.17;96.54;102880.44;4947398;29;20035;-74
2022/11/12 02:19:00;;;;;;;32.85;16.42;;;;;;;10.62;98.62;102868.19;4932281;29;20032;-74
2022/11/12 02:21:26;;;;;;;34.60;15.38;;;;;;;10.74;98.70;102873.59;4934457;29;20023;-74
2022/11/12 02:24:00;;;;;;;36.20;16.77;;;;;;;10.71;98.33;102875.66;4950272;29;20083;-75
2022/11/12 02:26:30;;;;;;;28.13;13.65;;;;;;;10.50;99.01;102865.38;4934827;29;20008;-74
2022/11/12 02:28:56;;;;;;;26.23;14.77;;;;;;;10.19;100.00;102866.63;4962932;28;20035;-74
2022/11/12 02:31:21;;;;;;;31.13;14.55;;;;;;;10.13;100.00;102860.78;4942941;28;20023;-74
2022/11/12 02:33:47;;;;;;;35.45;15.68;;;;;;;9.98;100.00;102847.34;4949691;28;20024;-74
2022/11/12 02:36:12;;;;;;;34.65;15.23;;;;;;;9.78;100.00;102846.00;4933972;29;20040;-74
2022/11/12 02:38:37;;;;;;;28.88;15.82;;;;;;;9.63;100.00;102851.56;4934543;29;20062;-74
2022/11/12 02:41:03;;;;;;;29.13;15.88;;;;;;;9.67;100.00;102847.72;4947722;29;20066;-73
2022/11/12 02:43:28;;;;;;;28.52;15.90;;;;;;;9.69;100.00;102853.88;4953887;29;20041;-73
2022/11/12 02:45:54;;;;;;;32.35;16.55;;;;;;;9.54;100.00;102863.03;4953614;28;20075;-73
2022/11/12 02:48:19;;;;;;;35.10;16.25;;;;;;;9.43;100.00;102861.91;4953616;29;20143;-74
2022/11/12 02:50:46;;;;;;;34.95;17.02;;;;;;;9.44;100.00;102860.91;4969606;28;20387;-74
2022/11/12 02:53:11;;;;;;;37.85;18.20;;;;;;;9.33;100.00;102866.19;4953556;28;20122;-73
2022/11/12 02:55:37;;;;;;;35.25;15.95;;;;;;;9.52;100.00;102866.72;4953710;28;20094;-74
2022/11/12 02:58:02;;;;;;;33.40;16.35;;;;;;;9.52;100.00;102861.31;4952838;29;20635;-74
2022/11/12 03:00:28;;;;;;;37.30;16.63;;;;;;;9.45;100.00;102870.78;4941786;29;20027;-74
2022/11/12 03:02:59;;;;;;;33.60;16.83;;;;;;;9.31;100.00;102868.13;4947981;23;20590;-74
2022/11/12 03:05:30;;;;;;;35.60;17.23;;;;;;;9.21;100.00;102867.00;4906506;29;20469;-72
2022/11/12 03:08:00;;;;;;;33.53;15.85;;;;;;;9.25;100.00;102874.78;4903534;29;20040;-72
2022/11/12 03:10:27;;;;;;;37.53;18.40;;;;;;;9.15;100.00;102878.22;4894323;29;20025;-73
2022/11/12 03:12:53;;;;;;;33.25;18.08;;;;;;;8.96;100.00;102878.53;4914811;29;20024;-72
2022/11/12 03:15:19;;;;;;;31.70;17.30;;;;;;;8.94;100.00;102886.75;4914187;29;20023;-73
2022/11/12 03:17:44;;;;;;;37.35;19.38;;;;;;;8.84;100.00;102880.19;4913338;29;20034;-72
2022/11/12 03:20:10;;;;;;;37.47;17.00;;;;;;;8.58;100.00;102883.66;4914360;29;20024;-72
2022/11/12 03:22:37;;;;;;;36.00;16.77;;;;;;;8.79;100.00;102887.69;4914297;29;20028;-72
2022/11/12 03:25:04;;;;;;;33.95;18.05;;;;;;;8.47;100.00;102891.53;4928812;29;20028;-73
2022/11/12 03:27:29;;;;;;;31.90;17.92;;;;;;;8.45;100.00;102890.78;4929259;29;20024;-72
2022/11/12 03:29:54;;;;;;;30.92;17.10;;;;;;;8.50;100.00;102896.78;4920119;29;20051;-73
2022/11/12 03:32:20;;;;;;;32.00;18.75;;;;;;;8.55;100.00;102902.75;4893570;29;20063;-72
2022/11/12 03:34:45;;;;;;;31.10;15.27;;;;;;;8.67;100.00;102893.88;4895066;29;20123;-73
2022/11/12 03:37:10;;;;;;;42.13;17.40;;;;;;;8.52;100.00;102889.44;4902780;29;20024;-72
2022/11/12 03:39:36;;;;;;;40.97;17.42;;;;;;;8.26;100.00;102872.97;4912981;29;20032;-72
2022/11/12 03:42:02;;;;;;;31.27;18.15;;;;;;;8.32;100.00;102894.19;4912771;29;20025;-72
2022/11/12 03:44:27;;;;;;;38.63;18.90;;;;;;;8.26;100.00;102882.91;4928575;29;20404;-73
2022/11/12 03:46:53;;;;;;;38.38;18.27;;;;;;;8.16;100.00;102877.22;4914101;29;20493;-74
2022/11/12 03:49:18;;;;;;;35.10;18.73;;;;;;;8.21;100.00;102880.47;4913063;29;20095;-73
2022/11/12 03:51:43;;;;;;;43.40;19.35;;;;;;;8.25;100.00;102887.44;4928611;29;20024;-70
2022/11/12 03:54:09;;;;;;;42.88;18.63;;;;;;;8.10;100.00;102899.19;4912525;29;20091;-72
2022/11/12 03:56:34;;;;;;;32.35;18.40;;;;;;;7.99;100.00;102896.25;4914223;29;20026;-72
2022/11/12 03:58:59;;;;;;;43.85;20.13;;;;;;;8.10;100.00;102894.66;4912775;29;20032;-73
2022/11/12 04:01:25;;;;;;;36.17;19.23;;;;;;;7.97;100.00;102892.78;4928388;29;20125;-72
2022/11/12 04:03:50;;;;;;;33.70;18.60;;;;;;;7.97;100.00;102887.38;4915061;29;20052;-73
2022/11/12 04:08:59;;;;;;;33.03;18.45;;;;;;;8.10;100.00;102893.78;4895239;29;20051;-72
2022/11/12 04:11:24;;;;;;;38.47;19.70;;;;;;;7.94;100.00;102888.41;4919401;29;20489;-73
2022/11/12 04:13:50;;;;;;;51.15;20.10;;;;;;;7.92;100.00;102895.75;4911938;29;20024;-72
2022/11/12 04:21:57;;;;;;;40.75;19.45;;;;;;;7.57;100.00;102895.13;4913487;29;20028;-72
2022/11/12 04:27:20;;;;;;;39.50;20.58;;;;;;;7.68;100.00;102903.44;4913142;29;20035;-72
2022/11/12 04:32:32;;;;;;;43.35;21.00;;;;;;;7.54;100.00;102900.69;4902328;29;20027;-72
2022/11/12 04:34:58;;;;;;;35.95;21.15;;;;;;;7.62;100.00;102903.81;4912133;29;20032;-71
2022/11/12 04:37:25;;;;;;;39.08;21.20;;;;;;;7.73;100.00;102906.75;4913204;29;20036;-71
2022/11/12 04:39:51;;;;;;;54.33;22.95;;;;;;;7.42;100.00;102906.78;4912771;29;20088;-72
2022/11/12 04:45:02;;;;;;;40.15;20.45;;;;;;;7.69;100.00;102912.41;4912854;29;20039;-72
2022/11/12 04:47:36;;;;;;;34.72;21.80;;;;;;;7.56;100.00;102898.75;4912252;29;20040;-71
2022/11/12 04:50:04;;;;;;;38.10;20.35;;;;;;;7.48;100.00;102912.69;4927361;29;20155;-72
2022/11/12 04:52:30;;;;;;;36.00;20.85;;;;;;;7.50;100.00;102915.31;4913363;29;20034;-71
2022/11/12 04:54:56;;;;;;;51.45;22.48;;;;;;;7.47;100.00;102910.09;4927361;29;20412;-71
2022/11/12 04:57:22;;;;;;;34.72;19.27;;;;;;;7.70;100.00;102906.94;4927994;29;20040;-72
2022/11/12 04:59:48;;;;;;;31.58;17.55;;;;;;;7.63;100.00;102919.03;4927479;29;20040;-72
2022/11/12 05:02:15;;;;;;;39.63;20.83;;;;;;;7.69;100.00;102921.34;4912805;29;20036;-71
2022/11/12 05:04:40;;;;;;;37.85;20.20;;;;;;;7.52;100.00;102908.88;4910030;29;20028;-74
2022/11/12 05:07:06;;;;;;;49.20;23.25;;;;;;;7.18;100.00;102909.94;4908389;29;20025;-72
2022/11/12 05:09:31;;;;;;;42.13;22.73;;;;;;;7.09;100.00;102915.81;4894223;29;20044;-72
2022/11/12 05:11:56;;;;;;;39.10;21.08;;;;;;;7.14;100.00;102916.44;4922387;29;20035;-72
2022/11/12 05:14:23;;;;;;;47.08;23.42;;;;;;;7.13;100.00;102912.00;4920079;29;20025;-72
2022/11/12 05:16:49;;;;;;;44.80;20.92;;;;;;;7.20;100.00;102913.41;4918871;29;20039;-71
2022/11/12 05:19:16;;;;;;;48.10;23.40;;;;;;;7.01;100.00;102901.91;4920710;29;20032;-71
2022/11/12 05:24:25;;;;;;;48.22;24.90;;;;;;;6.61;100.00;102909.47;4912723;29;20038;-72
2022/11/12 05:26:51;;;;;;;46.05;24.20;;;;;;;6.82;100.00;102906.56;4912546;29;20095;-73
2022/11/12 05:29:17;;;;;;;54.28;25.10;;;;;;;6.77;100.00;102910.38;4908937;29;20043;-72
2022/11/12 05:31:43;;;;;;;37.58;21.52;;;;;;;6.73;100.00;102916.91;4912759;29;20028;-72
2022/11/12 05:34:08;;;;;;;40.05;19.92;;;;;;;6.65;100.00;102913.75;4911116;29;20036;-73
2022/11/12 05:36:34;;;;;;;38.72;21.50;;;;;;;6.71;100.00;102910.72;4911911;29;20024;-72
2022/11/12 05:38:59;;;;;;;40.40;18.42;;;;;;;6.66;100.00;102907.41;4912202;29;20047;-72
2022/11/12 05:41:25;;;;;;;42.70;21.50;;;;;;;6.75;100.00;102906.03;4911572;29;20060;-72
2022/11/12 05:43:50;;;;;;;41.92;20.75;;;;;;;6.65;100.00;102911.06;4927282;29;20088;-72
2022/11/12 05:46:16;;;;;;;44.20;22.25;;;;;;;6.66;100.00;102923.56;4912861;29;20036;-71
2022/11/12 05:48:41;;;;;;;41.00;20.15;;;;;;;6.58;100.00;102915.00;4927352;29;20032;-72
2022/11/12 05:51:06;;;;;;;42.42;21.25;;;;;;;6.70;100.00;102919.75;4912817;29;20043;-72
2022/11/12 05:53:32;;;;;;;58.38;25.13;;;;;;;6.55;100.00;102915.19;4912481;29;20035;-72
2022/11/12 05:56:05;;;;;;;48.75;22.38;;;;;;;6.55;100.00;102908.94;4931406;29;20024;-72
2022/11/12 05:58:31;;;;;;;42.90;24.52;;;;;;;6.60;100.00;102921.22;4915182;29;20032;-73
2022/11/12 06:00:57;;;;;;;38.80;20.60;;;;;;;6.48;100.00;102916.47;4923295;29;20039;-73
2022/11/12 06:03:23;;;;;;;40.88;23.80;;;;;;;6.64;100.00;102928.16;4915602;29;20040;-73
2022/11/12 06:05:49;;;;;;;40.15;20.73;;;;;;;6.63;100.00;102923.72;4931246;29;20038;-71
2022/11/12 06:08:14;;;;;;;40.95;21.42;;;;;;;6.64;100.00;102936.22;4915054;29;20545;-72
2022/11/12 06:10:40;;;;;;;41.20;23.23;;;;;;;6.65;100.00;102927.22;4930900;29;20024;-72
2022/11/12 06:13:06;;;;;;;38.97;21.88;;;;;;;6.42;100.00;102935.63;4915251;29;20039;-72
2022/11/12 06:15:31;;;;;;;49.03;24.88;;;;;;;6.37;100.00;102937.69;4930529;29;20020;-72
2022/11/12 06:17:56;;;;;;;49.88;26.77;;;;;;;6.40;100.00;102933.03;4915926;29;20437;-72
2022/11/12 06:20:22;;;;;;;51.38;24.60;;;;;;;6.36;100.00;102931.44;4930833;29;20035;-72
2022/11/12 06:22:48;;;;;;;45.00;25.60;;;;;;;6.43;100.00;102938.25;4930909;29;20127;-72
2022/11/12 06:25:13;;;;;;;37.92;21.25;;;;;;;6.21;100.00;102935.81;4915555;29;20040;-71
2022/11/12 06:27:39;;;;;;;59.30;27.63;;;;;;;6.20;100.00;102935.91;4916053;29;20040;-72
2022/11/12 06:30:06;;;;;;;40.42;23.13;;;;;;;6.17;100.00;102936.91;4898072;29;20033;-72
2022/11/12 06:32:32;;;;;;;51.63;26.88;;;;;;;6.36;100.00;102935.97;4902881;29;20020;-72
2022/11/12 06:34:57;;;;;;;56.45;24.15;;;;;;;6.19;100.00;102939.50;4915133;29;20273;-73
2022/11/12 06:37:24;;;;;;;51.95;23.90;;;;;;;6.17;100.00;102947.66;4915825;29;20036;-73
2022/11/12 06:39:49;;;;;;;43.40;21.50;;;;;;;6.23;100.00;102947.34;4915848;29;20031;-73
2022/11/12 06:42:14;;;;;;;56.63;27.55;;;;;;;6.22;100.00;102933.97;4915821;29;20032;-72
2022/11/12 06:44:40;;;;;;;60.35;28.73;;;;;;;6.02;100.00;102937.69;4915430;29;20039;-74
2022/11/12 06:47:05;;;;;;;56.38;27.65;;;;;;;5.96;100.00;102928.13;4916008;29;20034;-71
2022/11/12 06:49:31;;;;;;;55.03;26.55;;;;;;;5.92;100.00;102957.91;4930089;29;20107;-72
2022/11/12 06:51:56;;;;;;;60.33;27.70;;;;;;;6.09;100.00;102965.16;4930335;29;20024;-72
2022/11/12 06:54:22;;;;;;;55.10;29.48;;;;;;;5.93;100.00;102959.66;4914729;29;20048;-72
2022/11/12 06:56:47;;;;;;;62.88;32.70;;;;;;;5.68;100.00;102955.50;4930168;29;20020;-72
2022/11/12 06:59:12;;;;;;;55.65;27.13;;;;;;;5.89;100.00;102952.69;4930264;29;20084;-72
2022/11/12 07:01:38;;;;;;;53.30;26.80;;;;;;;5.83;100.00;102966.44;4929796;29;20032;-72
2022/11/12 07:04:03;;;;;;;56.80;29.08;;;;;;;5.67;100.00;102964.50;4902963;29;20039;-72
2022/11/12 07:06:29;;;;;;;58.80;29.13;;;;;;;5.68;100.00;102960.00;4896465;29;20025;-72
2022/11/12 07:08:54;;;;;;;63.42;28.73;;;;;;;5.65;100.00;102963.69;4896649;29;20052;-73
2022/11/12 07:11:20;;;;;;;49.72;26.95;;;;;;;5.84;100.00;102970.84;4906162;29;20074;-72
2022/11/12 07:13:46;;;;;;;55.55;28.17;;;;;;;5.80;100.00;102958.50;4927231;29;20020;-72
2022/11/12 07:16:13;;;;;;;49.45;28.00;;;;;;;5.83;100.00;102961.06;4913819;29;20475;-72
2022/11/12 07:18:39;;;;;;;57.50;25.20;;;;;;;5.86;100.00;102980.56;4928918;29;20044;-72
2022/11/12 07:21:10;;;;;;;54.75;26.73;;;;;;;5.96;100.00;102971.16;4917529;29;20024;-71
2022/11/12 07:23:35;;;;;;;48.10;25.52;;;;;;;5.89;100.00;102974.19;4930057;29;20047;-71
2022/11/12 07:26:07;;;;;;;41.28;23.20;;;;;;;5.89;100.00;102974.19;4930052;29;20056;-71
2022/11/12 07:28:32;;;;;;;42.80;24.35;;;;;;;6.08;100.00;102975.03;4914248;29;20461;-72
2022/11/12 07:30:59;;;;;;;50.08;26.25;;;;;;;6.11;100.00;102985.63;4930239;29;20036;-69
2022/11/12 07:33:25;;;;;;;49.28;22.75;;;;;;;6.11;100.00;102990.13;4929809;29;20035;-72
2022/11/12 07:35:58;;;;;;;41.30;23.35;;;;;;;6.24;100.00;102992.13;4929510;29;20095;-69
2022/11/12 07:38:23;;;;;;;44.17;22.80;;;;;;;6.36;100.00;102984.38;4914093;29;20024;-71
2022/11/12 07:40:49;;;;;;;39.92;20.65;;;;;;;6.48;100.00;102978.38;4929801;29;20039;-70
2022/11/12 07:43:14;;;;;;;38.80;20.42;;;;;;;6.57;100.00;102977.88;4915155;29;20028;-71
2022/11/12 07:45:39;;;;;;;36.70;19.50;;;;;;;6.57;100.00;102983.25;4930067;29;20358;-71
2022/11/12 07:48:05;;;;;;;39.15;19.15;;;;;;;6.69;100.00;102987.13;4913821;29;20076;-71
2022/11/12 07:50:30;;;;;;;36.42;20.83;;;;;;;6.29;100.00;102988.34;4929655;29;20032;-71
2022/11/12 07:52:59;;;;;;;44.15;21.65;;;;;;;6.63;100.00;102980.25;4915259;29;20031;-71
2022/11/12 07:55:24;;;;;;;37.05;19.45;;;;;;;6.55;100.00;102979.78;4929114;29;20076;-70
2022/11/12 07:57:49;;;;;;;37.92;19.75;;;;;;;6.50;100.00;102981.84;4914736;29;20036;-71
2022/11/12 08:00:15;;;;;;;33.92;18.90;;;;;;;6.59;100.00;102986.75;4929413;29;20064;-71
2022/11/12 08:02:40;;;;;;;32.92;17.30;;;;;;;6.78;100.00;102998.31;4929100;29;20473;-70
2022/11/12 08:05:06;;;;;;;37.22;21.05;;;;;;;6.83;100.00;102989.09;4929520;29;20451;-70
2022/11/12 08:07:31;;;;;;;40.45;19.13;;;;;;;6.94;100.00;102981.31;4913307;29;20028;-69
2022/11/12 08:09:57;;;;;;;33.53;17.23;;;;;;;7.02;100.00;103000.63;4914930;29;20051;-69
2022/11/12 08:12:23;;;;;;;35.80;16.60;;;;;;;7.04;100.00;102998.69;4913267;29;20119;-70
2022/11/12 08:14:48;;;;;;;34.05;15.90;;;;;;;7.11;100.00;103005.53;4913431;29;20104;-69
2022/11/12 08:17:14;;;;;;;33.75;15.43;;;;;;;7.24;100.00;103001.19;4928058;29;20028;-70
2022/11/12 08:19:39;;;;;;;33.33;16.98;;;;;;;7.26;100.00;102985.81;4913492;29;20044;-70
2022/11/12 08:22:04;;;;;;;33.03;16.50;;;;;;;7.15;100.00;102990.03;4928874;29;20079;-70
2022/11/12 08:24:30;;;;;;;29.00;15.15;;;;;;;7.23;100.00;102988.66;4929223;29;20032;-70
2022/11/12 08:26:55;;;;;;;25.10;15.40;;;;;;;7.61;100.00;103004.53;4929141;29;20035;-70
2022/11/12 08:29:22;;;;;;;31.08;14.32;;;;;;;7.70;100.00;103009.41;4928848;29;20388;-70
2022/11/12 08:31:47;;;;;;;25.20;14.43;;;;;;;7.78;100.00;103012.53;4928696;29;20044;-70
2022/11/12 08:34:12;;;;;;;22.27;13.48;;;;;;;7.98;100.00;102997.03;4913094;29;20028;-70
2022/11/12 08:36:39;;;;;;;33.53;15.20;;;;;;;8.26;99.83;102997.13;4928746;29;20032;-70
2022/11/12 08:39:06;;;;;;;26.88;13.65;;;;;;;7.98;99.39;103005.13;4912472;29;20480;-70
2022/11/12 08:41:31;;;;;;;29.00;13.00;;;;;;;8.17;97.88;103013.88;4913724;29;20032;-69
2022/11/12 08:43:57;;;;;;;21.45;13.25;;;;;;;8.31;98.64;103016.63;4912104;29;20039;-70
2022/11/12 08:46:22;;;;;;;20.85;13.30;;;;;;;8.52;97.44;103008.25;4913185;29;20028;-70
2022/11/12 08:48:48;;;;;;;26.02;13.23;;;;;;;8.55;96.81;103008.06;4912872;29;20058;-70
2022/11/12 08:51:13;;;;;;;25.13;12.88;;;;;;;8.67;96.64;103015.41;4924921;29;20024;-70
2022/11/12 08:53:39;;;;;;;21.17;12.43;;;;;;;8.86;95.22;103016.00;4905485;29;20039;-68
2022/11/12 08:56:04;;;;;;;27.02;11.90;;;;;;;8.69;95.68;103016.19;4904926;29;20503;-68
2022/11/12 08:58:29;;;;;;;22.85;12.27;;;;;;;8.65;95.46;103014.63;4922687;29;20123;-70
2022/11/12 09:00:56;;;;;;;27.80;13.27;;;;;;;8.79;95.07;103028.16;4921730;29;20062;-70
2022/11/12 09:03:25;;;;;;;25.15;12.13;;;;;;;9.08;94.71;103028.22;4906159;29;20040;-71
2022/11/12 09:05:51;;;;;;;27.10;12.70;;;;;;;9.23;93.38;103024.53;4922103;29;20056;-71
2022/11/12 09:08:20;;;;;;;23.80;11.80;;;;;;;8.90;93.39;103012.16;4921493;29;20036;-71
2022/11/12 09:10:46;;;;;;;22.40;10.65;;;;;;;9.01;94.29;103011.50;4921905;29;20035;-70
2022/11/12 09:13:13;;;;;;;23.20;12.38;;;;;;;9.12;93.90;103013.53;4906400;29;20024;-71
2022/11/12 09:15:39;;;;;;;24.08;12.48;;;;;;;9.38;92.81;103025.38;4921432;29;20028;-71
2022/11/12 09:18:07;;;;;;;20.25;11.27;;;;;;;9.71;91.40;103017.81;4906137;29;20043;-70
2022/11/12 09:20:32;;;;;;;20.17;11.40;;;;;;;9.81;90.97;103020.78;4902770;29;20077;-70
2022/11/12 09:23:04;;;;;;;27.70;12.07;;;;;;;9.81;90.10;103022.63;4899752;29;20055;-71
2022/11/12 09:25:30;;;;;;;23.40;11.35;;;;;;;10.10;89.57;103023.41;4907149;29;20545;-70
2022/11/12 09:27:55;;;;;;;26.33;12.55;;;;;;;10.15;90.17;103032.09;4924216;29;20024;-69
2022/11/12 09:30:21;;;;;;;21.98;11.70;;;;;;;10.59;87.48;103032.69;4912842;29;20504;-69
2022/11/12 09:32:46;;;;;;;18.38;10.77;;;;;;;10.90;86.54;103025.16;4912279;29;20023;-69
2022/11/12 09:35:12;;;;;;;23.98;12.27;;;;;;;10.77;86.30;103024.25;4911368;29;20046;-70
2022/11/12 09:37:37;;;;;;;23.38;10.63;;;;;;;10.95;86.15;103012.09;4926909;29;20394;-69
2022/11/12 09:40:04;;;;;;;22.83;11.15;;;;;;;11.08;85.85;103013.00;4927511;29;20024;-72
2022/11/12 09:42:29;;;;;;;24.02;10.70;;;;;;;11.13;85.43;103024.38;4909852;29;20060;-73
2022/11/12 09:45:01;;;;;;;19.83;10.32;;;;;;;11.49;84.31;103049.84;4910599;29;20091;-70
2022/11/12 09:47:40;;;;;;;19.30;10.07;;;;;;;11.33;83.60;103032.91;4927282;29;20092;-70
2022/11/12 09:50:23;;;;;;;25.67;11.77;;;;;;;11.03;84.34;103020.59;4909872;29;20039;-72
2022/11/12 09:52:56;;;;;;;19.65;11.70;;;;;;;11.28;84.10;103025.13;4899836;29;20088;-70
2022/11/12 09:55:32;;;;;;;21.77;11.63;;;;;;;11.40;83.95;103023.34;4904178;29;20036;-71
2022/11/12 09:57:57;;;;;;;21.20;10.77;;;;;;;11.41;83.51;103035.97;4890506;29;20095;-71
2022/11/12 10:00:23;;;;;;;19.08;11.05;;;;;;;11.85;82.72;103040.00;4900559;29;20500;-70
2022/11/12 10:03:11;;;;;;;21.98;10.60;;;;;;;11.81;82.80;103033.09;4924959;29;20134;-70
2022/11/12 10:05:46;;;;;;;18.73;11.25;;;;;;;12.04;81.89;103024.09;4907258;29;20047;-72
2022/11/12 10:08:40;;;;;;;22.50;10.90;;;;;;;12.15;80.66;103021.44;4907502;29;20096;-69
2022/11/12 10:12:30;;;;;;;14.27;10.18;;;;;;;12.18;80.62;103018.47;4908698;29;20024;-71
2022/11/12 10:14:46;;;;;;;21.60;10.52;;;;;;;12.20;81.07;103030.09;4906996;29;20031;-71
2022/11/12 10:17:28;;;;;;;29.40;10.82;;;;;;;12.39;80.74;103029.56;4925399;29;20028;-70
2022/11/12 10:20:17;;;;;;;20.83;9.98;;;;;;;12.75;79.14;103028.56;4911132;29;20052;-71
2022/11/12 10:23:19;;;;;;;17.00;10.00;;;;;;;12.65;79.51;103033.00;4912896;29;20043;-72
2022/11/12 10:25:48;;;;;;;19.08;10.50;;;;;;;12.88;78.91;103020.31;4910458;29;20051;-71
2022/11/12 10:28:25;;;;;;;24.90;10.95;;;;;;;12.84;78.86;103034.25;4926899;29;20080;-71
2022/11/12 10:30:54;;;;;;;19.73;10.27;;;;;;;13.22;78.15;103040.28;4919212;29;20055;-71
2022/11/12 10:33:19;;;;;;;24.55;11.43;;;;;;;13.26;77.86;103040.94;4908318;29;20059;-70
2022/11/12 10:35:45;;;;;;;21.30;11.07;;;;;;;13.18;78.09;103038.78;4908305;29;20505;-71
2022/11/12 10:38:17;;;;;;;28.65;11.38;;;;;;;13.04;78.29;103036.31;4893427;29;20032;-70
2022/11/12 10:40:42;;;;;;;22.73;10.73;;;;;;;13.18;78.57;103038.78;4892303;29;20052;-69
2022/11/12 10:43:21;;;;;;;20.40;11.38;;;;;;;13.58;77.09;103057.38;4907924;29;20052;-69
2022/11/12 10:45:48;;;;;;;22.15;10.60;;;;;;;13.56;76.26;103043.00;4893334;29;20017;-72
2022/11/12 10:48:32;;;;;;;23.27;10.95;;;;;;;13.42;76.91;103035.09;4907327;29;20029;-71
2022/11/12 10:50:58;;;;;;;20.30;9.73;;;;;;;13.59;76.37;103037.34;4907915;29;20032;-72
2022/11/12 10:53:32;;;;;;;24.80;10.88;;;;;;;13.56;76.71;103037.56;4891962;29;20027;-70
2022/11/12 10:55:59;;;;;;;19.65;9.82;;;;;;;13.65;76.99;103042.28;4908436;29;20017;-70
2022/11/12 10:58:25;;;;;;;17.50;8.73;;;;;;;14.20;75.10;103043.13;4907581;29;20020;-71
2022/11/12 11:01:03;;;;;;;19.73;11.75;;;;;;;14.48;74.48;103040.84;4907458;29;20055;-73
2022/11/12 11:03:46;;;;;;;22.73;12.48;;;;;;;14.56;74.05;103024.69;4893390;29;20035;-72
2022/11/12 11:06:15;;;;;;;22.00;10.02;;;;;;;14.42;74.62;103016.81;4894930;29;20128;-72
2022/11/12 11:08:46;;;;;;;17.20;9.85;;;;;;;14.49;73.89;103026.22;4910999;29;20533;-69
2022/11/12 11:11:23;;;;;;;17.08;9.75;;;;;;;14.74;73.34;103031.28;4911330;29;20020;-73
2022/11/12 11:13:50;;;;;;;19.17;10.48;;;;;;;14.79;72.74;103026.28;4926924;29;20047;-71
2022/11/12 11:16:24;;;;;;;19.35;12.05;;;;;;;14.68;72.73;103029.09;4910390;29;20115;-72
2022/11/12 11:19:03;;;;;;;17.38;9.82;;;;;;;14.59;73.54;103021.69;4910242;29;20043;-71
2022/11/12 11:21:57;;;;;;;19.30;9.73;;;;;;;14.58;73.45;103009.91;4926022;29;20079;-71
2022/11/12 11:24:31;;;;;;;20.95;10.18;;;;;;;14.77;73.28;103009.19;4927097;29;20031;-71
2022/11/12 11:27:27;;;;;;;20.70;10.40;;;;;;;14.47;73.17;103011.84;4895731;29;20021;-71
2022/11/12 11:29:55;;;;;;;21.80;9.48;;;;;;;14.67;73.58;103019.19;4891952;29;20028;-71
2022/11/12 11:32:45;;;;;;;28.48;10.20;;;;;;;15.17;72.50;103012.00;4892016;29;20025;-70